sensor_id;sensor_type;location;lat;lon;timestamp;temperature;humidity
14252;DHT22;7210;51.502;10.722;2022-12-07T00:01:12;1.10;45.30
14252;DHT22;7210;51.502;10.722;2022-12-07T00:03:42;1.20;42.70
14252;DHT22;7210;51.502;10.722;2022-12-07T00:06:14;1.20;47.60
14252;DHT22;7210;51.502;10.722;2022-12-07T00:08:44;1.20;49.00
14252;DHT22;7210;51.502;10.722;2022-12-07T00:11:13;1.30;48.00
14252;DHT22;7210;51.502;10.722;2022-12-07T00:13:42;1.30;52.50
14252;DHT22;7210;51.502;10.722;2022-12-07T00:16:11;1.20;51.10
14252;DHT22;7210;51.502;10.722;2022-12-07T00:18:40;1.20;49.20
14252;DHT22;7210;51.502;10.722;2022-12-07T00:21:10;1.30;44.00
14252;DHT22;7210;51.502;10.722;2022-12-07T00:23:42;1.30;38.30
14252;DHT22;7210;51.502;10.722;2022-12-07T00:26:13;1.40;50.00
14252;DHT22;7210;51.502;10.722;2022-12-07T00:28:45;1.40;42.90
14252;DHT22;7210;51.502;10.722;2022-12-07T00:31:15;1.40;40.90
14252;DHT22;7210;51.502;10.722;2022-12-07T00:33:47;1.40;39.10
14252;DHT22;7210;51.502;10.722;2022-12-07T00:36:17;1.50;39.20
14252;DHT22;7210;51.502;10.722;2022-12-07T00:38:47;1.60;47.10
14252;DHT22;7210;51.502;10.722;2022-12-07T00:41:16;1.60;52.30
14252;DHT22;7210;51.502;10.722;2022-12-07T00:43:45;1.60;58.70
14252;DHT22;7210;51.502;10.722;2022-12-07T00:46:14;1.60;66.70
14252;DHT22;7210;51.502;10.722;2022-12-07T00:48:42;1.50;63.20
14252;DHT22;7210;51.502;10.722;2022-12-07T00:51:12;1.50;60.30
14252;DHT22;7210;51.502;10.722;2022-12-07T00:53:43;1.60;59.80
14252;DHT22;7210;51.502;10.722;2022-12-07T00:56:12;1.50;56.20
14252;DHT22;7210;51.502;10.722;2022-12-07T00:58:40;1.60;54.20
14252;DHT22;7210;51.502;10.722;2022-12-07T01:01:09;1.50;51.00
14252;DHT22;7210;51.502;10.722;2022-12-07T01:03:38;1.50;51.20
14252;DHT22;7210;51.502;10.722;2022-12-07T01:06:06;1.40;50.40
14252;DHT22;7210;51.502;10.722;2022-12-07T01:08:33;1.40;45.80
14252;DHT22;7210;51.502;10.722;2022-12-07T01:11:04;1.40;43.40
14252;DHT22;7210;51.502;10.722;2022-12-07T01:13:33;1.40;39.20
14252;DHT22;7210;51.502;10.722;2022-12-07T01:16:04;1.40;36.90
14252;DHT22;7210;51.502;10.722;2022-12-07T01:18:35;1.40;34.40
14252;DHT22;7210;51.502;10.722;2022-12-07T01:21:04;1.40;34.40
14252;DHT22;7210;51.502;10.722;2022-12-07T01:23:33;1.40;30.00
14252;DHT22;7210;51.502;10.722;2022-12-07T01:26:10;1.40;26.50
14252;DHT22;7210;51.502;10.722;2022-12-07T01:28:41;1.40;24.20
14252;DHT22;7210;51.502;10.722;2022-12-07T01:31:10;1.40;22.50
14252;DHT22;7210;51.502;10.722;2022-12-07T01:33:42;1.40;19.00
14252;DHT22;7210;51.502;10.722;2022-12-07T01:36:15;1.60;20.40
14252;DHT22;7210;51.502;10.722;2022-12-07T01:38:45;1.60;20.80
14252;DHT22;7210;51.502;10.722;2022-12-07T01:41:15;1.70;48.00
14252;DHT22;7210;51.502;10.722;2022-12-07T01:44:14;1.70;33.50
14252;DHT22;7210;51.502;10.722;2022-12-07T01:46:48;1.70;37.40
14252;DHT22;7210;51.502;10.722;2022-12-07T01:49:20;1.70;37.70
14252;DHT22;7210;51.502;10.722;2022-12-07T01:51:54;1.70;40.20
14252;DHT22;7210;51.502;10.722;2022-12-07T01:54:27;1.70;41.40
14252;DHT22;7210;51.502;10.722;2022-12-07T01:56:56;1.70;39.20
14252;DHT22;7210;51.502;10.722;2022-12-07T01:59:25;1.60;35.90
14252;DHT22;7210;51.502;10.722;2022-12-07T02:01:54;1.70;33.10
14252;DHT22;7210;51.502;10.722;2022-12-07T02:04:23;1.70;33.90
14252;DHT22;7210;51.502;10.722;2022-12-07T02:06:51;1.70;34.70
14252;DHT22;7210;51.502;10.722;2022-12-07T02:09:20;1.70;30.50
14252;DHT22;7210;51.502;10.722;2022-12-07T02:11:48;1.80;32.40
14252;DHT22;7210;51.502;10.722;2022-12-07T02:14:17;1.70;33.30
14252;DHT22;7210;51.502;10.722;2022-12-07T02:16:54;1.70;34.10
14252;DHT22;7210;51.502;10.722;2022-12-07T02:29:37;1.70;20.80
14252;DHT22;7210;51.502;10.722;2022-12-07T02:32:13;1.80;18.90
14252;DHT22;7210;51.502;10.722;2022-12-07T02:34:50;1.90;20.00
14252;DHT22;7210;51.502;10.722;2022-12-07T02:37:29;1.80;20.80
14252;DHT22;7210;51.502;10.722;2022-12-07T02:40:07;1.70;21.50
14252;DHT22;7210;51.502;10.722;2022-12-07T02:42:44;1.80;23.10
14252;DHT22;7210;51.502;10.722;2022-12-07T02:45:19;1.70;24.10
14252;DHT22;7210;51.502;10.722;2022-12-07T02:47:51;1.70;22.00
14252;DHT22;7210;51.502;10.722;2022-12-07T02:50:22;1.70;21.50
14252;DHT22;7210;51.502;10.722;2022-12-07T02:52:50;1.80;20.90
14252;DHT22;7210;51.502;10.722;2022-12-07T02:55:19;1.70;21.60
14252;DHT22;7210;51.502;10.722;2022-12-07T02:58:19;1.70;23.00
14252;DHT22;7210;51.502;10.722;2022-12-07T03:01:08;1.80;23.30
14252;DHT22;7210;51.502;10.722;2022-12-07T03:03:50;1.70;28.90
14252;DHT22;7210;51.502;10.722;2022-12-07T03:09:45;1.60;27.10
14252;DHT22;7210;51.502;10.722;2022-12-07T03:12:25;1.60;24.80
14252;DHT22;7210;51.502;10.722;2022-12-07T03:15:01;1.60;22.90
14252;DHT22;7210;51.502;10.722;2022-12-07T03:20:32;1.60;17.80
14252;DHT22;7210;51.502;10.722;2022-12-07T03:23:04;1.60;17.30
14252;DHT22;7210;51.502;10.722;2022-12-07T03:25:36;1.60;15.90
14252;DHT22;7210;51.502;10.722;2022-12-07T03:28:10;1.60;12.10
14252;DHT22;7210;51.502;10.722;2022-12-07T03:30:45;1.60;11.60
14252;DHT22;7210;51.502;10.722;2022-12-07T03:33:19;1.60;8.70
14252;DHT22;7210;51.502;10.722;2022-12-07T03:35:58;1.70;10.20
14252;DHT22;7210;51.502;10.722;2022-12-07T03:38:32;1.70;11.30
14252;DHT22;7210;51.502;10.722;2022-12-07T03:41:06;1.60;10.90
14252;DHT22;7210;51.502;10.722;2022-12-07T03:43:40;1.60;8.60
14252;DHT22;7210;51.502;10.722;2022-12-07T03:46:17;1.60;3.70
14252;DHT22;7210;51.502;10.722;2022-12-07T03:48:56;1.60;3.30
14252;DHT22;7210;51.502;10.722;2022-12-07T03:51:38;1.70;1.00
14252;DHT22;7210;51.502;10.722;2022-12-07T03:54:14;1.60;1.00
14252;DHT22;7210;51.502;10.722;2022-12-07T03:56:47;1.60;1.00
14252;DHT22;7210;51.502;10.722;2022-12-07T03:59:16;1.70;1.00
14252;DHT22;7210;51.502;10.722;2022-12-07T04:01:45;1.70;10.70
14252;DHT22;7210;51.502;10.722;2022-12-07T04:04:19;1.70;1.00
14252;DHT22;7210;51.502;10.722;2022-12-07T04:06:48;1.70;1.00
14252;DHT22;7210;51.502;10.722;2022-12-07T04:09:15;1.80;1.00
14252;DHT22;7210;51.502;10.722;2022-12-07T04:11:43;1.80;2.40
14252;DHT22;7210;51.502;10.722;2022-12-07T04:14:11;1.70;1.70
14252;DHT22;7210;51.502;10.722;2022-12-07T04:16:47;1.70;2.20
14252;DHT22;7210;51.502;10.722;2022-12-07T04:19:17;1.70;1.00
14252;DHT22;7210;51.502;10.722;2022-12-07T04:21:46;1.80;1.00
14252;DHT22;7210;51.502;10.722;2022-12-07T04:24:15;1.80;1.00
14252;DHT22;7210;51.502;10.722;2022-12-07T04:26:44;1.80;1.40
14252;DHT22;7210;51.502;10.722;2022-12-07T04:29:11;1.80;2.00
14252;DHT22;7210;51.502;10.722;2022-12-07T04:31:40;1.90;1.60
14252;DHT22;7210;51.502;10.722;2022-12-07T04:34:07;1.90;1.00
14252;DHT22;7210;51.502;10.722;2022-12-07T04:36:35;1.90;4.00
14252;DHT22;7210;51.502;10.722;2022-12-07T04:39:06;1.90;1.70
14252;DHT22;7210;51.502;10.722;2022-12-07T04:41:40;2.00;1.10
14252;DHT22;7210;51.502;10.722;2022-12-07T04:44:08;2.10;1.90
14252;DHT22;7210;51.502;10.722;2022-12-07T04:46:36;2.00;4.90
14252;DHT22;7210;51.502;10.722;2022-12-07T04:49:07;2.00;2.70
14252;DHT22;7210;51.502;10.722;2022-12-07T04:51:43;2.10;3.60
14252;DHT22;7210;51.502;10.722;2022-12-07T04:54:12;2.10;3.40
14252;DHT22;7210;51.502;10.722;2022-12-07T04:56:43;2.20;2.20
14252;DHT22;7210;51.502;10.722;2022-12-07T04:59:11;2.20;4.30
14252;DHT22;7210;51.502;10.722;2022-12-07T05:01:39;2.20;2.40
14252;DHT22;7210;51.502;10.722;2022-12-07T05:04:13;2.20;3.60
14252;DHT22;7210;51.502;10.722;2022-12-07T05:06:41;2.20;5.10
14252;DHT22;7210;51.502;10.722;2022-12-07T05:09:15;2.30;4.50
14252;DHT22;7210;51.502;10.722;2022-12-07T05:11:42;2.20;6.40
14252;DHT22;7210;51.502;10.722;2022-12-07T05:14:12;2.20;7.20
14252;DHT22;7210;51.502;10.722;2022-12-07T05:16:41;2.30;7.80
14252;DHT22;7210;51.502;10.722;2022-12-07T05:19:10;2.30;8.00
14252;DHT22;7210;51.502;10.722;2022-12-07T05:21:38;2.30;9.30
14252;DHT22;7210;51.502;10.722;2022-12-07T05:24:07;2.30;10.30
14252;DHT22;7210;51.502;10.722;2022-12-07T05:26:39;2.30;9.60
14252;DHT22;7210;51.502;10.722;2022-12-07T05:29:06;2.30;10.70
14252;DHT22;7210;51.502;10.722;2022-12-07T05:31:33;2.40;10.00
14252;DHT22;7210;51.502;10.722;2022-12-07T05:34:01;2.40;9.90
14252;DHT22;7210;51.502;10.722;2022-12-07T05:36:28;2.40;9.20
14252;DHT22;7210;51.502;10.722;2022-12-07T05:38:57;2.50;8.30
14252;DHT22;7210;51.502;10.722;2022-12-07T05:41:25;2.50;11.90
14252;DHT22;7210;51.502;10.722;2022-12-07T05:44:11;2.50;12.00
14252;DHT22;7210;51.502;10.722;2022-12-07T05:46:38;2.50;13.10
14252;DHT22;7210;51.502;10.722;2022-12-07T05:49:06;2.50;10.60
14252;DHT22;7210;51.502;10.722;2022-12-07T05:51:33;2.60;15.90
14252;DHT22;7210;51.502;10.722;2022-12-07T05:54:00;2.60;16.50
14252;DHT22;7210;51.502;10.722;2022-12-07T05:58:55;2.60;19.10
14252;DHT22;7210;51.502;10.722;2022-12-07T06:01:41;2.60;22.60
14252;DHT22;7210;51.502;10.722;2022-12-07T06:04:09;2.60;24.50
14252;DHT22;7210;51.502;10.722;2022-12-07T06:06:37;2.60;32.40
14252;DHT22;7210;51.502;10.722;2022-12-07T06:09:04;2.70;33.70
14252;DHT22;7210;51.502;10.722;2022-12-07T06:11:31;2.60;36.20
14252;DHT22;7210;51.502;10.722;2022-12-07T06:14:16;2.60;35.00
14252;DHT22;7210;51.502;10.722;2022-12-07T06:16:45;2.60;32.50
14252;DHT22;7210;51.502;10.722;2022-12-07T06:19:13;2.50;52.70
14252;DHT22;7210;51.502;10.722;2022-12-07T06:21:40;2.50;32.30
14252;DHT22;7210;51.502;10.722;2022-12-07T06:24:08;2.60;32.90
14252;DHT22;7210;51.502;10.722;2022-12-07T06:26:37;2.50;33.90
14252;DHT22;7210;51.502;10.722;2022-12-07T06:29:08;2.50;35.40
14252;DHT22;7210;51.502;10.722;2022-12-07T06:31:36;2.50;33.20
14252;DHT22;7210;51.502;10.722;2022-12-07T06:34:07;2.60;33.50
14252;DHT22;7210;51.502;10.722;2022-12-07T06:36:38;2.60;37.10
14252;DHT22;7210;51.502;10.722;2022-12-07T06:39:06;2.60;40.70
14252;DHT22;7210;51.502;10.722;2022-12-07T06:41:35;2.60;46.10
14252;DHT22;7210;51.502;10.722;2022-12-07T06:44:03;2.70;64.70
14252;DHT22;7210;51.502;10.722;2022-12-07T06:46:30;2.70;74.30
14252;DHT22;7210;51.502;10.722;2022-12-07T06:48:58;2.80;77.90
14252;DHT22;7210;51.502;10.722;2022-12-07T06:51:35;2.80;84.40
14252;DHT22;7210;51.502;10.722;2022-12-07T06:54:07;2.80;83.60
14252;DHT22;7210;51.502;10.722;2022-12-07T06:56:40;2.80;89.70
14252;DHT22;7210;51.502;10.722;2022-12-07T06:59:13;2.80;92.20
14252;DHT22;7210;51.502;10.722;2022-12-07T07:01:40;2.80;87.40
14252;DHT22;7210;51.502;10.722;2022-12-07T07:04:08;2.80;83.90
14252;DHT22;7210;51.502;10.722;2022-12-07T07:06:36;2.80;88.60
14252;DHT22;7210;51.502;10.722;2022-12-07T07:09:07;2.80;86.60
14252;DHT22;7210;51.502;10.722;2022-12-07T07:11:35;2.80;86.00
14252;DHT22;7210;51.502;10.722;2022-12-07T07:14:02;2.80;84.60
14252;DHT22;7210;51.502;10.722;2022-12-07T07:16:30;2.80;86.10
14252;DHT22;7210;51.502;10.722;2022-12-07T07:18:57;2.80;86.00
14252;DHT22;7210;51.502;10.722;2022-12-07T07:21:25;2.70;83.40
14252;DHT22;7210;51.502;10.722;2022-12-07T07:23:53;2.80;79.70
14252;DHT22;7210;51.502;10.722;2022-12-07T07:26:22;2.80;76.00
14252;DHT22;7210;51.502;10.722;2022-12-07T07:28:49;2.80;75.60
14252;DHT22;7210;51.502;10.722;2022-12-07T07:31:16;2.80;77.80
14252;DHT22;7210;51.502;10.722;2022-12-07T07:33:45;2.80;80.10
14252;DHT22;7210;51.502;10.722;2022-12-07T07:36:13;2.80;99.90
14252;DHT22;7210;51.502;10.722;2022-12-07T07:38:40;2.90;87.70
14252;DHT22;7210;51.502;10.722;2022-12-07T07:41:09;2.90;90.70
14252;DHT22;7210;51.502;10.722;2022-12-07T07:43:36;2.90;92.30
14252;DHT22;7210;51.502;10.722;2022-12-07T07:46:03;3.00;93.90
14252;DHT22;7210;51.502;10.722;2022-12-07T07:48:31;3.00;99.90
14252;DHT22;7210;51.502;10.722;2022-12-07T07:50:58;3.00;99.90
14252;DHT22;7210;51.502;10.722;2022-12-07T07:53:31;3.00;99.90
14252;DHT22;7210;51.502;10.722;2022-12-07T07:55:58;3.00;99.90
14252;DHT22;7210;51.502;10.722;2022-12-07T07:58:27;3.10;99.90
14252;DHT22;7210;51.502;10.722;2022-12-07T08:00:55;3.10;99.90
14252;DHT22;7210;51.502;10.722;2022-12-07T08:03:22;3.10;99.90
14252;DHT22;7210;51.502;10.722;2022-12-07T08:05:50;3.10;99.90
14252;DHT22;7210;51.502;10.722;2022-12-07T08:08:17;3.10;99.90
14252;DHT22;7210;51.502;10.722;2022-12-07T08:10:44;3.20;99.90
14252;DHT22;7210;51.502;10.722;2022-12-07T08:13:11;3.20;99.90
14252;DHT22;7210;51.502;10.722;2022-12-07T08:15:45;3.20;99.90
14252;DHT22;7210;51.502;10.722;2022-12-07T08:18:14;3.20;99.90
14252;DHT22;7210;51.502;10.722;2022-12-07T08:20:42;3.20;99.90
14252;DHT22;7210;51.502;10.722;2022-12-07T08:23:10;3.20;99.90
14252;DHT22;7210;51.502;10.722;2022-12-07T08:25:38;3.30;99.90
14252;DHT22;7210;51.502;10.722;2022-12-07T08:28:06;3.30;99.90
14252;DHT22;7210;51.502;10.722;2022-12-07T08:30:34;3.30;99.90
14252;DHT22;7210;51.502;10.722;2022-12-07T08:33:03;3.30;99.90
14252;DHT22;7210;51.502;10.722;2022-12-07T08:35:32;3.30;99.90
14252;DHT22;7210;51.502;10.722;2022-12-07T08:38:00;3.30;99.90
14252;DHT22;7210;51.502;10.722;2022-12-07T08:40:31;3.40;99.90
14252;DHT22;7210;51.502;10.722;2022-12-07T08:42:58;3.40;99.90
14252;DHT22;7210;51.502;10.722;2022-12-07T08:45:26;3.40;99.90
14252;DHT22;7210;51.502;10.722;2022-12-07T08:47:56;3.40;99.90
14252;DHT22;7210;51.502;10.722;2022-12-07T08:50:31;3.40;99.90
14252;DHT22;7210;51.502;10.722;2022-12-07T08:53:01;3.40;99.90
14252;DHT22;7210;51.502;10.722;2022-12-07T08:55:30;3.40;99.90
14252;DHT22;7210;51.502;10.722;2022-12-07T08:58:02;3.40;99.90
14252;DHT22;7210;51.502;10.722;2022-12-07T09:00:31;3.40;99.90
14252;DHT22;7210;51.502;10.722;2022-12-07T09:02:58;3.40;99.90
14252;DHT22;7210;51.502;10.722;2022-12-07T09:05:33;3.40;99.90
14252;DHT22;7210;51.502;10.722;2022-12-07T09:08:01;3.50;99.90
14252;DHT22;7210;51.502;10.722;2022-12-07T09:10:29;3.50;99.90
14252;DHT22;7210;51.502;10.722;2022-12-07T09:12:57;3.50;99.90
14252;DHT22;7210;51.502;10.722;2022-12-07T09:15:26;3.60;99.90
14252;DHT22;7210;51.502;10.722;2022-12-07T09:17:54;3.50;99.90
14252;DHT22;7210;51.502;10.722;2022-12-07T09:20:21;3.50;99.90
14252;DHT22;7210;51.502;10.722;2022-12-07T09:22:50;3.50;99.90
14252;DHT22;7210;51.502;10.722;2022-12-07T09:25:17;3.50;99.90
14252;DHT22;7210;51.502;10.722;2022-12-07T09:27:45;3.50;99.90
14252;DHT22;7210;51.502;10.722;2022-12-07T09:30:12;3.50;99.90
14252;DHT22;7210;51.502;10.722;2022-12-07T09:32:40;3.50;99.90
14252;DHT22;7210;51.502;10.722;2022-12-07T09:35:08;3.50;99.90
14252;DHT22;7210;51.502;10.722;2022-12-07T09:37:37;3.60;99.90
14252;DHT22;7210;51.502;10.722;2022-12-07T09:40:07;3.50;99.90
14252;DHT22;7210;51.502;10.722;2022-12-07T09:42:36;3.60;99.90
14252;DHT22;7210;51.502;10.722;2022-12-07T09:45:07;3.60;99.90
14252;DHT22;7210;51.502;10.722;2022-12-07T09:47:43;3.60;99.90
14252;DHT22;7210;51.502;10.722;2022-12-07T09:50:13;3.60;99.90
14252;DHT22;7210;51.502;10.722;2022-12-07T09:52:44;3.60;99.90
14252;DHT22;7210;51.502;10.722;2022-12-07T09:55:16;3.60;99.90
14252;DHT22;7210;51.502;10.722;2022-12-07T09:57:49;3.60;99.90
14252;DHT22;7210;51.502;10.722;2022-12-07T10:00:20;3.70;99.90
14252;DHT22;7210;51.502;10.722;2022-12-07T10:02:52;3.70;99.90
14252;DHT22;7210;51.502;10.722;2022-12-07T10:05:26;3.70;99.90
14252;DHT22;7210;51.502;10.722;2022-12-07T10:07:56;3.70;99.90
14252;DHT22;7210;51.502;10.722;2022-12-07T10:10:27;3.80;99.90
14252;DHT22;7210;51.502;10.722;2022-12-07T10:12:59;3.80;99.90
14252;DHT22;7210;51.502;10.722;2022-12-07T10:15:46;3.80;99.90
14252;DHT22;7210;51.502;10.722;2022-12-07T10:18:27;3.80;99.90
14252;DHT22;7210;51.502;10.722;2022-12-07T10:21:02;3.80;99.90
14252;DHT22;7210;51.502;10.722;2022-12-07T10:23:33;3.90;99.90
14252;DHT22;7210;51.502;10.722;2022-12-07T10:26:20;3.80;99.90
14252;DHT22;7210;51.502;10.722;2022-12-07T10:28:54;3.90;99.90
14252;DHT22;7210;51.502;10.722;2022-12-07T10:31:23;3.90;99.90
14252;DHT22;7210;51.502;10.722;2022-12-07T10:33:52;3.90;99.90
14252;DHT22;7210;51.502;10.722;2022-12-07T10:36:24;4.00;99.90
14252;DHT22;7210;51.502;10.722;2022-12-07T10:39:00;4.00;99.90
14252;DHT22;7210;51.502;10.722;2022-12-07T10:41:31;4.00;99.90
14252;DHT22;7210;51.502;10.722;2022-12-07T10:43:59;4.00;99.90
14252;DHT22;7210;51.502;10.722;2022-12-07T10:46:53;4.00;99.90
14252;DHT22;7210;51.502;10.722;2022-12-07T10:53:00;3.90;99.90
14252;DHT22;7210;51.502;10.722;2022-12-07T10:56:11;3.90;99.90
14252;DHT22;7210;51.502;10.722;2022-12-07T10:59:04;3.90;99.90
14252;DHT22;7210;51.502;10.722;2022-12-07T11:01:57;4.00;99.90
14252;DHT22;7210;51.502;10.722;2022-12-07T11:04:39;4.00;99.90
14252;DHT22;7210;51.502;10.722;2022-12-07T11:07:24;4.00;99.90
14252;DHT22;7210;51.502;10.722;2022-12-07T11:10:09;4.00;99.90
14252;DHT22;7210;51.502;10.722;2022-12-07T11:12:52;3.90;99.90
14252;DHT22;7210;51.502;10.722;2022-12-07T11:15:39;3.80;99.90
14252;DHT22;7210;51.502;10.722;2022-12-07T11:18:22;3.80;99.90
14252;DHT22;7210;51.502;10.722;2022-12-07T11:20:58;3.80;99.90
14252;DHT22;7210;51.502;10.722;2022-12-07T11:23:44;3.80;99.90
14252;DHT22;7210;51.502;10.722;2022-12-07T11:26:29;3.80;99.90
14252;DHT22;7210;51.502;10.722;2022-12-07T11:29:20;3.70;99.90
14252;DHT22;7210;51.502;10.722;2022-12-07T11:32:07;3.80;99.90
14252;DHT22;7210;51.502;10.722;2022-12-07T11:34:59;3.80;99.90
14252;DHT22;7210;51.502;10.722;2022-12-07T11:37:34;3.80;99.90
14252;DHT22;7210;51.502;10.722;2022-12-07T11:40:15;3.80;99.90
14252;DHT22;7210;51.502;10.722;2022-12-07T11:42:51;3.70;99.90
14252;DHT22;7210;51.502;10.722;2022-12-07T11:45:27;3.70;99.90
14252;DHT22;7210;51.502;10.722;2022-12-07T11:48:05;3.80;99.90
14252;DHT22;7210;51.502;10.722;2022-12-07T11:50:41;3.80;99.90
14252;DHT22;7210;51.502;10.722;2022-12-07T11:53:18;3.90;99.90
14252;DHT22;7210;51.502;10.722;2022-12-07T11:55:52;3.90;99.90
14252;DHT22;7210;51.502;10.722;2022-12-07T11:58:48;4.00;99.90
14252;DHT22;7210;51.502;10.722;2022-12-07T12:01:39;4.00;99.90
14252;DHT22;7210;51.502;10.722;2022-12-07T12:04:25;4.10;99.90
14252;DHT22;7210;51.502;10.722;2022-12-07T12:07:01;4.10;99.90
14252;DHT22;7210;51.502;10.722;2022-12-07T12:09:35;4.00;99.90
14252;DHT22;7210;51.502;10.722;2022-12-07T12:12:31;4.00;99.90
14252;DHT22;7210;51.502;10.722;2022-12-07T12:15:42;4.00;99.90
14252;DHT22;7210;51.502;10.722;2022-12-07T12:18:41;3.90;99.90
14252;DHT22;7210;51.502;10.722;2022-12-07T12:21:26;3.90;99.90
14252;DHT22;7210;51.502;10.722;2022-12-07T12:23:57;3.90;99.90
14252;DHT22;7210;51.502;10.722;2022-12-07T12:26:31;3.90;99.90
14252;DHT22;7210;51.502;10.722;2022-12-07T12:29:02;3.90;99.90
14252;DHT22;7210;51.502;10.722;2022-12-07T12:31:34;3.90;99.90
14252;DHT22;7210;51.502;10.722;2022-12-07T12:34:29;4.00;99.90
14252;DHT22;7210;51.502;10.722;2022-12-07T12:40:42;4.00;99.90
14252;DHT22;7210;51.502;10.722;2022-12-07T12:46:51;4.10;99.90
14252;DHT22;7210;51.502;10.722;2022-12-07T12:52:51;4.20;99.90
14252;DHT22;7210;51.502;10.722;2022-12-07T12:58:49;4.10;99.90
14252;DHT22;7210;51.502;10.722;2022-12-07T13:01:49;4.10;99.90
14252;DHT22;7210;51.502;10.722;2022-12-07T13:04:40;4.00;99.90
14252;DHT22;7210;51.502;10.722;2022-12-07T13:07:51;4.00;99.90
14252;DHT22;7210;51.502;10.722;2022-12-07T13:10:41;4.10;99.90
14252;DHT22;7210;51.502;10.722;2022-12-07T13:13:32;4.10;99.90
14252;DHT22;7210;51.502;10.722;2022-12-07T13:19:55;4.10;99.90
14252;DHT22;7210;51.502;10.722;2022-12-07T13:22:44;4.10;99.90
14252;DHT22;7210;51.502;10.722;2022-12-07T13:25:29;4.20;99.90
14252;DHT22;7210;51.502;10.722;2022-12-07T13:28:14;4.10;99.90
14252;DHT22;7210;51.502;10.722;2022-12-07T13:30:59;4.10;99.90
14252;DHT22;7210;51.502;10.722;2022-12-07T13:33:34;4.10;99.90
14252;DHT22;7210;51.502;10.722;2022-12-07T13:36:03;4.10;99.90
14252;DHT22;7210;51.502;10.722;2022-12-07T13:38:33;4.10;99.90
14252;DHT22;7210;51.502;10.722;2022-12-07T13:41:15;4.10;99.90
14252;DHT22;7210;51.502;10.722;2022-12-07T13:43:50;4.10;99.90
14252;DHT22;7210;51.502;10.722;2022-12-07T13:46:26;4.10;99.90
14252;DHT22;7210;51.502;10.722;2022-12-07T13:49:02;4.10;99.90
14252;DHT22;7210;51.502;10.722;2022-12-07T13:51:35;4.10;99.90
14252;DHT22;7210;51.502;10.722;2022-12-07T13:54:10;4.10;99.90
14252;DHT22;7210;51.502;10.722;2022-12-07T13:56:41;4.00;99.90
14252;DHT22;7210;51.502;10.722;2022-12-07T13:59:13;3.90;99.90
14252;DHT22;7210;51.502;10.722;2022-12-07T14:01:51;3.80;99.90
14252;DHT22;7210;51.502;10.722;2022-12-07T14:04:30;3.80;99.90
14252;DHT22;7210;51.502;10.722;2022-12-07T14:07:00;3.70;99.90
14252;DHT22;7210;51.502;10.722;2022-12-07T14:09:54;3.70;99.90
14252;DHT22;7210;51.502;10.722;2022-12-07T14:12:25;3.70;99.90
14252;DHT22;7210;51.502;10.722;2022-12-07T14:14:56;3.70;99.90
14252;DHT22;7210;51.502;10.722;2022-12-07T14:17:25;3.70;99.90
14252;DHT22;7210;51.502;10.722;2022-12-07T14:19:54;3.70;99.90
14252;DHT22;7210;51.502;10.722;2022-12-07T14:22:28;3.70;99.90
14252;DHT22;7210;51.502;10.722;2022-12-07T14:25:19;3.60;99.90
14252;DHT22;7210;51.502;10.722;2022-12-07T14:27:54;3.60;99.90
14252;DHT22;7210;51.502;10.722;2022-12-07T14:30:26;3.60;99.90
14252;DHT22;7210;51.502;10.722;2022-12-07T14:32:57;3.60;99.90
14252;DHT22;7210;51.502;10.722;2022-12-07T14:35:32;3.50;99.90
14252;DHT22;7210;51.502;10.722;2022-12-07T14:37:59;3.60;99.90
14252;DHT22;7210;51.502;10.722;2022-12-07T14:40:28;3.60;99.90
14252;DHT22;7210;51.502;10.722;2022-12-07T14:43:00;3.50;99.90
14252;DHT22;7210;51.502;10.722;2022-12-07T14:45:31;3.50;99.90
14252;DHT22;7210;51.502;10.722;2022-12-07T14:47:59;3.50;99.90
14252;DHT22;7210;51.502;10.722;2022-12-07T14:50:26;3.50;99.90
14252;DHT22;7210;51.502;10.722;2022-12-07T14:52:56;3.50;99.90
14252;DHT22;7210;51.502;10.722;2022-12-07T14:55:28;3.50;99.90
14252;DHT22;7210;51.502;10.722;2022-12-07T14:57:58;3.40;99.90
14252;DHT22;7210;51.502;10.722;2022-12-07T15:00:31;3.30;99.90
14252;DHT22;7210;51.502;10.722;2022-12-07T15:03:01;3.30;99.90
14252;DHT22;7210;51.502;10.722;2022-12-07T15:05:28;3.20;99.90
14252;DHT22;7210;51.502;10.722;2022-12-07T15:07:56;3.20;99.90
14252;DHT22;7210;51.502;10.722;2022-12-07T15:10:26;3.20;99.90
14252;DHT22;7210;51.502;10.722;2022-12-07T15:12:59;3.20;99.90
14252;DHT22;7210;51.502;10.722;2022-12-07T15:15:41;3.10;99.90
14252;DHT22;7210;51.502;10.722;2022-12-07T15:18:09;3.20;99.90
14252;DHT22;7210;51.502;10.722;2022-12-07T15:20:36;3.10;99.90
14252;DHT22;7210;51.502;10.722;2022-12-07T15:23:04;3.10;99.90
14252;DHT22;7210;51.502;10.722;2022-12-07T15:25:32;3.10;99.90
14252;DHT22;7210;51.502;10.722;2022-12-07T15:28:01;3.00;99.90
14252;DHT22;7210;51.502;10.722;2022-12-07T15:30:28;3.00;99.90
14252;DHT22;7210;51.502;10.722;2022-12-07T15:32:56;3.00;99.90
14252;DHT22;7210;51.502;10.722;2022-12-07T15:35:24;3.00;99.90
14252;DHT22;7210;51.502;10.722;2022-12-07T15:37:51;2.90;99.90
14252;DHT22;7210;51.502;10.722;2022-12-07T15:40:18;2.90;99.90
14252;DHT22;7210;51.502;10.722;2022-12-07T15:42:46;2.90;99.90
14252;DHT22;7210;51.502;10.722;2022-12-07T15:45:15;2.90;99.90
14252;DHT22;7210;51.502;10.722;2022-12-07T15:47:43;2.90;99.90
14252;DHT22;7210;51.502;10.722;2022-12-07T15:50:13;2.90;99.90
14252;DHT22;7210;51.502;10.722;2022-12-07T15:52:42;2.90;99.90
14252;DHT22;7210;51.502;10.722;2022-12-07T15:55:10;2.90;99.90
14252;DHT22;7210;51.502;10.722;2022-12-07T15:57:38;2.90;99.90
14252;DHT22;7210;51.502;10.722;2022-12-07T16:00:07;2.80;99.90
14252;DHT22;7210;51.502;10.722;2022-12-07T16:02:37;2.90;99.90
14252;DHT22;7210;51.502;10.722;2022-12-07T16:05:05;2.90;99.90
14252;DHT22;7210;51.502;10.722;2022-12-07T16:07:33;2.90;99.90
14252;DHT22;7210;51.502;10.722;2022-12-07T16:10:00;2.90;99.90
14252;DHT22;7210;51.502;10.722;2022-12-07T16:12:27;2.90;99.90
14252;DHT22;7210;51.502;10.722;2022-12-07T16:14:54;2.90;99.90
14252;DHT22;7210;51.502;10.722;2022-12-07T16:17:22;2.90;99.90
14252;DHT22;7210;51.502;10.722;2022-12-07T16:19:50;2.90;99.90
14252;DHT22;7210;51.502;10.722;2022-12-07T16:22:19;2.90;99.90
14252;DHT22;7210;51.502;10.722;2022-12-07T16:24:49;2.90;99.90
14252;DHT22;7210;51.502;10.722;2022-12-07T16:27:16;3.00;99.90
14252;DHT22;7210;51.502;10.722;2022-12-07T16:29:44;2.90;99.90
14252;DHT22;7210;51.502;10.722;2022-12-07T16:32:11;2.90;99.90
14252;DHT22;7210;51.502;10.722;2022-12-07T16:34:39;2.90;99.90
14252;DHT22;7210;51.502;10.722;2022-12-07T16:37:08;2.90;99.90
14252;DHT22;7210;51.502;10.722;2022-12-07T16:39:35;2.90;99.90
14252;DHT22;7210;51.502;10.722;2022-12-07T16:42:03;2.90;99.90
14252;DHT22;7210;51.502;10.722;2022-12-07T16:44:30;2.90;99.90
14252;DHT22;7210;51.502;10.722;2022-12-07T16:46:58;2.80;99.90
14252;DHT22;7210;51.502;10.722;2022-12-07T16:49:31;2.80;99.90
14252;DHT22;7210;51.502;10.722;2022-12-07T16:52:01;2.80;99.90
14252;DHT22;7210;51.502;10.722;2022-12-07T16:54:30;2.80;99.90
14252;DHT22;7210;51.502;10.722;2022-12-07T16:57:01;2.80;99.90
14252;DHT22;7210;51.502;10.722;2022-12-07T16:59:28;2.80;99.90
14252;DHT22;7210;51.502;10.722;2022-12-07T17:01:56;2.80;99.90